Belgium, Illinois
Current Conditions -  °F | °C
As of 3:55 PM on Monday 22 Dec 2014 (Local Time) from KDNV Reporting Station
Light Rain Light Rain  
Wind Chill: 35°   Ceiling: 2100
Heat Index: 42°   Visibility: 5mi
Dew Point: 41°   Wind: 12mph
Humidity: 95%   Direction: 120°ESE
Pressure: 29.65"   Gusts: NA
Location:  40.0417°N, 87.6306°W
Report Text: KDNV 222155Z AUTO 12010KT 5SM -RA BKN021 BKN043 OVC050 06/05 A2965 RMK AO2 P0004 T00550048
Loading
Personal Weather Stations






























Interactive Weather Map New forecast layout! Learn more

10-Day Weather Forecast

Advertisements
Track Severe Weather on mobile